• Join FlightAware (Why Join?)
  • Login
  • US Flag 
07:26PM EDT


 

Airport Tracker/Info


-or-


 

Live Flight TrackerFlight Track Log ✈ KAP15 ✈ 07-May-2013 ✈ KBHB - KBOS

Flight Track Log - Related Links

Times and Time Zones

All times are in EDT time to prevent confusion due to time zone crossing. See the KAP15 flight status page for this flight to view local times or setup timezone preferences in your user account.

Time Position Orientation Groundspeed Altitude Reporting Facility
EDT Latitude Longitude Course Direction KTS MPH feet Rate Location/Type
06:13AM 44.3358 -68.5786 234° Southwest  Level FlightAware Approximate
06:14AM 44.3213 -68.6315 251° West  Level FlightAware Approximate
06:15AM 44.3000 -68.6750 227° Southwest  Level FlightAware Approximate
06:16AM 44.2763 -68.7171 240° Southwest  Level FlightAware Approximate
06:17AM 44.2572 -68.7637 240° Southwest  Level FlightAware Approximate
06:18AM 44.2380 -68.8103 240° Southwest  Level FlightAware Approximate
06:19AM 44.2188 -68.8568 240° Southwest  Level FlightAware Approximate
06:20AM 44.1996 -68.9034 240° Southwest  Level FlightAware Approximate
06:21AM 44.1804 -68.9499 240° Southwest  Level FlightAware Approximate
06:22AM 44.1611 -68.9963 240° Southwest  Level FlightAware Approximate
06:23AM 44.1418 -69.0428 240° Southwest  Level FlightAware Approximate
06:24AM 44.1226 -69.0892 240° Southwest  Level FlightAware Approximate
06:25AM 44.1032 -69.1356 240° Southwest  Level FlightAware Approximate
06:26AM 44.0839 -69.1819 240° Southwest  Level FlightAware Approximate
06:27AM 44.0620 -69.2260 235° Southwest  Level FlightAware Approximate
06:28AM 44.0401 -69.2700 235° Southwest  Level FlightAware Approximate
06:29AM 44.0181 -69.3140 235° Southwest  Level FlightAware Approximate
06:30AM 43.9961 -69.3579 235° Southwest  Level FlightAware Approximate
06:31AM 43.9741 -69.4018 235° Southwest  Level FlightAware Approximate
06:32AM 43.9533 -69.4467 238° Southwest  Level FlightAware Approximate
06:33AM 43.9330 -69.4922 238° Southwest  Level FlightAware Approximate
06:34AM 43.9128 -69.5377 238° Southwest  Level FlightAware Approximate
06:35AM 43.8925 -69.5831 238° Southwest  Level FlightAware Approximate
06:36AM 43.8722 -69.6284 238° Southwest  Level FlightAware Approximate
06:37AM 43.8519 -69.6738 238° Southwest  Level FlightAware Approximate
06:38AM 43.8315 -69.7191 238° Southwest  Level FlightAware Approximate
06:39AM 43.8112 -69.7644 238° Southwest  Level FlightAware Approximate
06:40AM 43.7908 -69.8096 238° Southwest  Level FlightAware Approximate
06:41AM 43.7704 -69.8548 238° Southwest  Level FlightAware Approximate
06:42AM 43.7500 -69.9000 237° Southwest  Level FlightAware Approximate
06:43AM 43.7290 -69.9447 237° Southwest  Level FlightAware Approximate
06:44AM 43.7079 -69.9893 237° Southwest  Level FlightAware Approximate
06:45AM 43.6869 -70.0338 237° Southwest  Level FlightAware Approximate
06:46AM 43.6658 -70.0784 237° Southwest  Level FlightAware Approximate
06:47AM 43.6447 -70.1229 237° Southwest  Level FlightAware Approximate
06:48AM 43.6236 -70.1674 237° Southwest  Level FlightAware Approximate
06:49AM 43.6025 -70.2118 237° Southwest  Level FlightAware Approximate
06:50AM 43.5814 -70.2562 237° Southwest  Level FlightAware Approximate
06:50AM 43.2500 -70.3667 237° Southwest 159 183 6,000  Level KA90
06:51AM 43.5602 -70.3006 237° Southwest  Level FlightAware Approximate
06:51AM 43.2167 -70.4167 228° Southwest 158 182 6,000  Level KA90
06:52AM 43.5390 -70.3450 237° Southwest  Level FlightAware Approximate
06:52AM 43.1833 -70.4667 228° Southwest 157 181 6,000  Level KA90
06:53AM 43.5178 -70.3893 237° Southwest  Level FlightAware Approximate
06:53AM 43.1500 -70.5000 216° Southwest 157 181 6,000  Level KA90
06:54AM 43.4966 -70.4336 237° Southwest  Level FlightAware Approximate
06:54AM 43.1167 -70.5500 228° Southwest 158 182 6,000  Level KA90
06:55AM 43.4754 -70.4779 237° Southwest  Level FlightAware Approximate
06:55AM 43.0833 -70.6000 228° Southwest 158 182 6,000  Level KA90
06:56AM 43.4542 -70.5221 237° Southwest  Level FlightAware Approximate
06:56AM 43.0667 -70.6333 236° Southwest 160 184 6,000  Level KA90
06:57AM 43.0167 -70.6500 194° South 160 184 6,000  Level KA90
06:58AM 42.9833 -70.6667 200° South 158 182 6,000  Level KA90
06:59AM 42.9333 -70.7000 206° Southwest 157 181 6,000  Level KA90
07:00AM 42.9000 -70.7167 200° South 159 183 6,000  Level KA90
07:01AM 42.8500 -70.7333 194° South 158 182 6,000  Level KA90
07:03AM 42.8000 -70.7667 206° Southwest 157 181 6,000  Level KA90
07:03AM 42.7667 -70.7833 200° South 163 188 6,000 -360 Level KA90
07:04AM 42.7167 -70.8167 206° Southwest 177 204 5,400 -480 Descending KA90
07:06AM 42.6667 -70.8333 194° South 180 207 5,000 -420 Descending KA90
07:07AM 42.6167 -70.8667 206° Southwest 176 203 4,600 -480 Descending KA90
07:08AM 42.5833 -70.8833 200° South 175 201 4,000 -540 Descending KA90
07:09AM 42.5333 -70.9167 206° Southwest 175 201 3,600 -840 Descending KA90
07:09AM 42.5000 -70.9333 200° South 172 198 2,600 -1,080 Descending KA90
07:10AM 42.4500 -70.9667 206° Southwest 177 204 1,600 -900 Descending KA90
07:12AM 42.4000 -70.9833 194° South 150 173 700 -840 Descending KA90
07:14AM 42.3630 -71.0064 203° Southwest  Level Estimated
07:21AM 42.3630 -71.0064 203° Southwest  Level Estimated